West Manchester, Ohio
Current Conditions -  °F | °C
As of 5:55 AM on Friday 28 Nov 2014 (Local Time) from KVES Reporting Station
Scattered Clouds Scattered Clouds  
Wind Chill: 19°   Ceiling: Unl
Heat Index: 19°   Visibility: 10mi
Dew Point: 19°   Wind: 3mph
Humidity: 100%   Direction: 220°SW
Pressure: 30.35"   Gusts: NA
Location:  39.9°N, 84.63°W
Report Text: KVES 281055Z AUTO 22003KT 10SM SCT110 M07/M07 A3035 RMK AO2
Loading
Personal Weather Stations






























Interactive Weather Map New forecast layout! Learn more

10-Day Weather Forecast

Advertisements
Track Severe Weather on mobile